createdAt,value
2024-03-12T00:01:10.050Z,1.08
2024-03-12T00:03:44.036Z,0.70
2024-03-12T00:06:11.838Z,0.95
2024-03-12T00:08:40.677Z,1.00
2024-03-12T00:11:08.948Z,1.10
2024-03-12T00:13:36.157Z,3.47
2024-03-12T00:16:04.818Z,0.90
2024-03-12T00:18:34.188Z,1.58
2024-03-12T00:21:04.496Z,0.82
2024-03-12T00:23:31.534Z,1.13
2024-03-12T00:25:58.521Z,0.82
2024-03-12T00:28:25.571Z,1.10
2024-03-12T00:30:55.045Z,0.75
2024-03-12T00:33:22.295Z,3.03
2024-03-12T00:35:49.473Z,1.10
2024-03-12T00:38:18.859Z,0.70
2024-03-12T00:40:52.233Z,0.60
2024-03-12T00:43:19.410Z,0.65
2024-03-12T00:45:51.308Z,1.00
2024-03-12T00:48:25.121Z,0.73
2024-03-12T00:50:52.236Z,0.82
2024-03-12T00:53:19.220Z,1.15
2024-03-12T00:55:48.478Z,1.38
2024-03-12T00:58:20.858Z,1.35
2024-03-12T01:00:50.183Z,0.73
2024-03-12T01:03:18.356Z,0.93
2024-03-12T01:08:13.612Z,0.60
2024-03-12T01:10:53.269Z,0.68
2024-03-12T01:13:48.755Z,0.63
2024-03-12T01:16:28.036Z,0.80
2024-03-12T01:18:55.245Z,1.08
2024-03-12T01:21:22.380Z,0.60
2024-03-12T01:23:49.994Z,0.70
2024-03-12T01:26:16.997Z,0.70
2024-03-12T01:28:44.048Z,0.75
2024-03-12T01:31:11.130Z,0.68
2024-03-12T01:33:38.255Z,0.90
2024-03-12T01:36:19.893Z,1.15
2024-03-12T01:38:51.685Z,0.63
2024-03-12T01:41:19.072Z,1.00
2024-03-12T01:43:56.594Z,0.60
2024-03-12T01:46:30.494Z,0.50
2024-03-12T01:48:59.774Z,0.90
2024-03-12T01:51:28.736Z,1.27
2024-03-12T01:53:57.603Z,1.48
2024-03-12T01:56:27.631Z,1.20
2024-03-12T01:58:55.113Z,0.80
2024-03-12T02:01:22.600Z,0.50
2024-03-12T02:03:53.096Z,1.20
2024-03-12T02:06:20.906Z,0.80
2024-03-12T02:08:50.190Z,1.08
2024-03-12T02:11:17.726Z,0.98
2024-03-12T02:13:44.967Z,0.80
2024-03-12T02:16:12.075Z,0.73
2024-03-12T02:18:39.467Z,0.50
2024-03-12T02:21:06.991Z,0.77
2024-03-12T02:23:47.361Z,1.33
2024-03-12T02:26:14.581Z,1.25
2024-03-12T02:28:41.623Z,1.38
2024-03-12T02:31:08.762Z,0.73
2024-03-12T02:33:36.734Z,1.80
2024-03-12T02:36:06.272Z,0.68
2024-03-12T02:38:33.324Z,0.80
2024-03-12T02:41:00.396Z,0.90
2024-03-12T02:43:28.903Z,0.70
2024-03-12T02:45:56.360Z,1.30
2024-03-12T02:48:24.753Z,1.02
2024-03-12T02:50:52.558Z,0.90
2024-03-12T02:53:19.564Z,1.00
2024-03-12T02:55:47.704Z,1.42
2024-03-12T02:58:14.906Z,1.20
2024-03-12T03:00:42.915Z,1.02
2024-03-12T03:03:09.926Z,1.23
2024-03-12T03:05:37.004Z,2.60
2024-03-12T03:08:04.367Z,1.30
2024-03-12T03:10:31.377Z,1.38
2024-03-12T03:12:58.490Z,1.00
2024-03-12T03:15:25.593Z,0.80
2024-03-12T03:17:53.848Z,0.98
2024-03-12T03:20:21.240Z,1.50
2024-03-12T03:22:48.321Z,1.00
2024-03-12T03:25:16.020Z,1.10
2024-03-12T03:27:43.589Z,0.70
2024-03-12T03:30:13.912Z,0.90
2024-03-12T03:32:41.060Z,1.45
2024-03-12T03:35:08.467Z,1.35
2024-03-12T03:37:38.222Z,0.77
2024-03-12T03:40:11.033Z,0.95
2024-03-12T03:42:43.124Z,0.93
2024-03-12T03:45:10.433Z,0.90
2024-03-12T03:47:37.562Z,1.10
2024-03-12T03:50:09.399Z,3.47
2024-03-12T03:52:38.227Z,1.23
2024-03-12T03:55:07.835Z,1.33
2024-03-12T03:57:35.234Z,1.30
2024-03-12T04:00:13.247Z,1.85
2024-03-12T04:02:40.920Z,1.70
2024-03-12T04:05:09.010Z,1.63
2024-03-12T04:07:36.077Z,1.95
2024-03-12T04:10:03.759Z,1.42
2024-03-12T04:12:30.940Z,1.88
2024-03-12T04:14:59.165Z,1.60
2024-03-12T04:17:26.320Z,1.63
2024-03-12T04:19:53.382Z,1.35
2024-03-12T04:22:20.425Z,1.90
2024-03-12T04:24:48.062Z,1.83
2024-03-12T04:27:16.147Z,3.22
2024-03-12T04:29:43.880Z,1.85
2024-03-12T04:32:11.093Z,1.50
2024-03-12T04:34:38.371Z,2.13
2024-03-12T04:37:05.800Z,1.75
2024-03-12T04:39:33.361Z,2.13
2024-03-12T04:42:03.361Z,1.90
2024-03-12T04:44:30.919Z,1.73
2024-03-12T04:46:58.425Z,1.92
2024-03-12T04:49:26.522Z,1.98
2024-03-12T04:51:54.375Z,2.63
2024-03-12T04:54:21.511Z,2.35
2024-03-12T04:56:51.724Z,2.40
2024-03-12T04:59:19.105Z,2.58
2024-03-12T05:01:48.792Z,3.03
2024-03-12T05:04:22.421Z,3.17
2024-03-12T05:06:50.912Z,1.88
2024-03-12T05:09:19.201Z,1.52
2024-03-12T05:11:46.931Z,2.33
2024-03-12T05:14:14.385Z,1.42
2024-03-12T05:16:41.429Z,1.55
2024-03-12T05:19:11.882Z,1.45
2024-03-12T05:21:39.454Z,2.17
2024-03-12T05:24:07.126Z,1.45
2024-03-12T05:26:37.377Z,2.80
2024-03-12T05:29:04.477Z,1.65
2024-03-12T05:31:33.630Z,1.55
2024-03-12T05:34:03.139Z,1.58
2024-03-12T05:36:42.946Z,1.33
2024-03-12T05:39:27.458Z,2.10
2024-03-12T05:42:12.835Z,2.00
2024-03-12T05:44:58.650Z,2.28
2024-03-12T05:47:45.148Z,2.88
2024-03-12T05:50:18.296Z,2.15
2024-03-12T05:52:49.331Z,2.50
2024-03-12T05:55:16.707Z,2.88
2024-03-12T05:57:46.864Z,4.25
2024-03-12T06:00:14.285Z,2.88
2024-03-12T06:02:43.025Z,3.00
2024-03-12T06:05:13.836Z,1.90
2024-03-12T06:07:50.879Z,1.95
2024-03-12T06:10:18.126Z,2.08
2024-03-12T06:12:45.671Z,2.70
2024-03-12T06:15:12.683Z,2.67
2024-03-12T06:17:39.782Z,2.28
2024-03-12T06:20:11.155Z,2.28
2024-03-12T06:22:38.945Z,3.55
2024-03-12T06:25:06.894Z,2.13
2024-03-12T06:27:37.551Z,2.90
2024-03-12T06:30:12.152Z,3.15
2024-03-12T06:32:39.168Z,2.35
2024-03-12T06:35:06.609Z,2.47
2024-03-12T06:37:34.162Z,2.40
2024-03-12T06:40:05.108Z,3.13
2024-03-12T06:45:01.628Z,2.78
2024-03-12T06:47:30.042Z,3.30
2024-03-12T06:49:59.663Z,2.35
2024-03-12T06:52:27.836Z,3.03
2024-03-12T06:54:55.010Z,3.88
2024-03-12T06:57:23.378Z,3.40
2024-03-12T06:59:50.843Z,2.70
2024-03-12T07:02:18.883Z,4.32
2024-03-12T07:04:48.445Z,3.47
2024-03-12T07:07:20.616Z,2.80
2024-03-12T07:09:48.417Z,4.93
2024-03-12T07:12:17.332Z,3.75
2024-03-12T07:14:46.669Z,4.18
2024-03-12T07:17:15.409Z,4.03
2024-03-12T07:19:43.992Z,3.53
2024-03-12T07:22:12.080Z,3.50
2024-03-12T07:24:40.712Z,3.00
2024-03-12T07:27:08.666Z,3.40
2024-03-12T07:29:36.039Z,2.60
2024-03-12T07:32:04.963Z,2.92
2024-03-12T07:34:32.850Z,4.63
2024-03-12T07:37:01.613Z,3.28
2024-03-12T07:39:35.710Z,2.38
2024-03-12T07:42:15.376Z,4.30
2024-03-12T07:44:42.935Z,4.35
2024-03-12T07:47:11.684Z,3.85
2024-03-12T07:49:38.818Z,4.10
2024-03-12T07:52:10.518Z,5.22
2024-03-12T07:54:37.871Z,4.63
2024-03-12T07:57:10.998Z,4.72
2024-03-12T07:59:38.327Z,5.00
2024-03-12T08:02:12.663Z,3.70
2024-03-12T08:04:46.569Z,5.63
2024-03-12T08:07:14.722Z,3.70
2024-03-12T08:09:45.172Z,4.13
2024-03-12T08:12:16.337Z,5.28
2024-03-12T08:14:45.709Z,5.90
2024-03-12T08:17:13.652Z,3.95
2024-03-12T08:19:44.427Z,4.07
2024-03-12T08:22:12.022Z,4.43
2024-03-12T08:24:40.391Z,4.93
2024-03-12T08:27:08.309Z,4.95
2024-03-12T08:29:35.445Z,5.18
2024-03-12T08:32:02.627Z,4.60
2024-03-12T08:34:29.774Z,3.40
2024-03-12T08:36:57.592Z,5.07
2024-03-12T08:39:29.237Z,4.85
2024-03-12T08:41:56.922Z,5.18
2024-03-12T08:44:24.749Z,4.88
2024-03-12T08:46:51.771Z,3.70
2024-03-12T08:49:18.885Z,3.45
2024-03-12T08:51:46.271Z,4.07
2024-03-12T08:54:15.163Z,3.88
2024-03-12T08:56:44.161Z,5.35
2024-03-12T08:59:16.775Z,3.80
2024-03-12T09:01:44.960Z,3.38
2024-03-12T09:04:12.450Z,4.82
2024-03-12T09:06:42.039Z,6.30
2024-03-12T09:09:09.257Z,3.25
2024-03-12T09:11:37.975Z,4.25
2024-03-12T09:14:06.023Z,4.93
2024-03-12T09:16:33.148Z,3.95
2024-03-12T09:19:01.433Z,6.25
2024-03-12T09:21:29.110Z,3.72
2024-03-12T09:24:01.575Z,3.78
2024-03-12T09:26:30.280Z,3.67
2024-03-12T09:28:58.731Z,3.80
2024-03-12T09:31:26.149Z,6.43
2024-03-12T09:33:53.917Z,3.67
2024-03-12T09:36:22.265Z,4.22
2024-03-12T09:38:51.907Z,5.53
2024-03-12T09:41:21.882Z,3.53
2024-03-12T09:43:49.695Z,5.70
2024-03-12T09:46:18.143Z,5.10
2024-03-12T09:48:47.796Z,5.00
2024-03-12T09:51:15.123Z,3.92
2024-03-12T09:53:43.621Z,4.30
2024-03-12T09:56:16.390Z,5.05
2024-03-12T09:58:44.344Z,5.20
2024-03-12T10:01:13.732Z,4.63
2024-03-12T10:03:44.855Z,5.70
2024-03-12T10:08:45.152Z,4.95
2024-03-12T10:11:22.361Z,6.28
2024-03-12T10:13:59.929Z,6.45
2024-03-12T10:16:28.829Z,6.57
2024-03-12T10:19:19.610Z,5.05
2024-03-12T10:21:47.159Z,5.60
2024-03-12T10:24:18.276Z,6.80
2024-03-12T10:29:20.825Z,5.80
2024-03-12T10:31:49.243Z,6.75
2024-03-12T10:34:21.340Z,8.10
2024-03-12T10:36:50.684Z,8.43
2024-03-12T10:39:29.635Z,9.15
2024-03-12T10:42:00.454Z,8.32
2024-03-12T10:44:29.970Z,8.00
2024-03-12T10:46:59.870Z,7.85
2024-03-12T10:49:28.920Z,10.73
2024-03-12T10:51:57.752Z,9.00
2024-03-12T10:54:27.710Z,9.57
2024-03-12T10:56:55.821Z,9.98
2024-03-12T10:59:24.701Z,8.18
2024-03-12T11:01:52.035Z,10.95
2024-03-12T11:04:19.163Z,9.60
2024-03-12T11:06:49.877Z,9.75
2024-03-12T11:09:23.053Z,9.05
2024-03-12T11:11:53.461Z,10.77
2024-03-12T11:14:21.678Z,9.20
2024-03-12T11:16:48.957Z,11.48
2024-03-12T11:19:22.003Z,9.98
2024-03-12T11:21:50.933Z,9.50
2024-03-12T11:24:30.618Z,8.00
2024-03-12T11:27:02.061Z,10.95
2024-03-12T11:30:09.923Z,10.63
2024-03-12T11:32:50.130Z,8.82
2024-03-12T11:35:22.499Z,8.77
2024-03-12T11:40:40.629Z,8.80
2024-03-12T11:43:12.437Z,9.40
2024-03-12T11:45:46.488Z,6.75
2024-03-12T11:48:20.174Z,7.93
2024-03-12T11:51:00.290Z,8.13
2024-03-12T11:53:36.621Z,7.83
2024-03-12T11:56:05.701Z,8.98
2024-03-12T11:58:42.102Z,5.40
2024-03-12T12:01:11.613Z,5.88
2024-03-12T12:03:38.975Z,7.85
2024-03-12T12:06:07.443Z,6.82
2024-03-12T12:08:42.470Z,7.85
2024-03-12T12:11:17.019Z,8.80
2024-03-12T12:16:18.872Z,5.23
2024-03-12T12:18:46.654Z,8.38
2024-03-12T12:21:19.775Z,7.60
2024-03-12T12:23:50.453Z,6.45
2024-03-12T12:26:23.061Z,6.30
2024-03-12T12:28:53.974Z,8.40
2024-03-12T12:33:56.799Z,7.68
2024-03-12T12:36:31.326Z,9.82
2024-03-12T12:39:03.790Z,10.02
2024-03-12T12:41:43.392Z,8.75
2024-03-12T12:44:16.177Z,9.88
2024-03-12T12:46:44.100Z,11.93
2024-03-12T12:49:14.352Z,10.68
2024-03-12T12:51:42.665Z,10.23
2024-03-12T12:54:10.709Z,10.23
2024-03-12T12:56:47.366Z,12.25
2024-03-12T12:59:17.702Z,12.70
2024-03-12T13:01:48.341Z,13.88
2024-03-12T13:04:24.588Z,9.90
2024-03-12T13:06:54.891Z,12.40
2024-03-12T13:09:30.260Z,8.50
2024-03-12T13:11:58.557Z,9.65
2024-03-12T13:14:27.079Z,8.02
2024-03-12T13:16:55.042Z,7.80
2024-03-12T13:19:23.927Z,6.13
2024-03-12T13:21:51.734Z,5.93
2024-03-12T13:24:22.015Z,7.68
2024-03-12T13:26:49.647Z,5.33
2024-03-12T13:29:17.064Z,5.25
2024-03-12T13:31:44.764Z,6.70
2024-03-12T13:34:11.835Z,7.90
2024-03-12T13:36:38.933Z,5.63
2024-03-12T13:39:07.416Z,5.72
2024-03-12T13:41:35.742Z,6.82
2024-03-12T13:44:02.858Z,5.53
2024-03-12T13:46:30.021Z,6.55
2024-03-12T13:49:16.588Z,7.03
2024-03-12T13:51:44.656Z,6.00
2024-03-12T13:54:12.060Z,7.88
2024-03-12T13:56:39.322Z,9.02
2024-03-12T13:59:06.482Z,5.88
2024-03-12T14:01:34.275Z,5.18
2024-03-12T14:04:01.889Z,5.68
2024-03-12T14:06:31.126Z,6.28
2024-03-12T14:08:58.404Z,6.90
2024-03-12T14:11:26.739Z,8.25
2024-03-12T14:13:56.199Z,13.38
2024-03-12T14:16:24.008Z,10.25
2024-03-12T14:18:53.202Z,11.38
2024-03-12T14:21:20.462Z,12.88
2024-03-12T14:23:48.684Z,14.77
2024-03-12T14:26:18.997Z,13.85
2024-03-12T14:28:47.042Z,15.10
2024-03-12T14:31:17.494Z,13.75
2024-03-12T14:33:44.820Z,11.57
2024-03-12T14:36:11.890Z,10.60
2024-03-12T14:38:39.183Z,12.30
2024-03-12T14:41:07.465Z,13.25
2024-03-12T14:43:35.539Z,10.13
2024-03-12T14:46:05.922Z,14.05
2024-03-12T14:48:33.352Z,12.68
2024-03-12T14:51:01.059Z,13.10
2024-03-12T14:53:28.589Z,15.05
2024-03-12T14:55:55.867Z,11.25
2024-03-12T14:58:23.368Z,13.23
2024-03-12T15:00:50.671Z,13.77
2024-03-12T15:03:19.887Z,14.80
2024-03-12T15:05:54.813Z,12.32
2024-03-12T15:08:21.985Z,13.82
2024-03-12T15:10:49.126Z,13.02
2024-03-12T15:13:16.359Z,11.57
2024-03-12T15:15:43.460Z,12.52
2024-03-12T15:18:13.893Z,10.57
2024-03-12T15:20:42.743Z,12.35
2024-03-12T15:23:09.805Z,15.13
2024-03-12T15:25:36.886Z,15.27
2024-03-12T15:28:04.319Z,12.63
2024-03-12T15:30:31.942Z,13.05
2024-03-12T15:32:59.198Z,10.82
2024-03-12T15:35:26.461Z,11.40
2024-03-12T15:37:55.121Z,9.23
2024-03-12T15:40:23.716Z,11.00
2024-03-12T15:42:51.060Z,9.20
2024-03-12T15:45:18.226Z,9.38
2024-03-12T15:47:45.694Z,8.80
2024-03-12T15:50:13.610Z,9.10
2024-03-12T15:52:41.566Z,8.90
2024-03-12T15:55:09.611Z,8.52
2024-03-12T15:57:39.892Z,8.93
2024-03-12T16:00:09.463Z,9.70
2024-03-12T16:02:39.845Z,10.35
2024-03-12T16:05:07.445Z,11.23
2024-03-12T16:07:37.517Z,12.38
2024-03-12T16:10:06.178Z,11.02
2024-03-12T16:12:33.712Z,14.20
2024-03-12T16:15:01.039Z,12.43
2024-03-12T16:17:31.256Z,9.77
2024-03-12T16:19:58.531Z,10.10
2024-03-12T16:22:25.659Z,11.23
2024-03-12T16:24:52.839Z,14.07
2024-03-12T16:27:19.930Z,13.40
2024-03-12T16:29:48.445Z,13.43
2024-03-12T16:32:15.663Z,13.82
2024-03-12T16:34:42.984Z,13.52
2024-03-12T16:37:10.500Z,12.70
2024-03-12T16:39:39.844Z,16.33
2024-03-12T16:42:07.337Z,15.27
2024-03-12T16:44:34.322Z,12.65
2024-03-12T16:47:05.736Z,15.10
2024-03-12T16:49:33.916Z,16.15
2024-03-12T16:52:02.253Z,14.00
2024-03-12T16:54:31.954Z,12.35
2024-03-12T16:57:03.564Z,12.18
2024-03-12T16:59:31.808Z,13.55
2024-03-12T17:01:59.453Z,11.45
2024-03-12T17:04:27.946Z,11.13
2024-03-12T17:06:59.445Z,12.48
2024-03-12T17:09:27.067Z,12.27
2024-03-12T17:11:57.478Z,10.23
2024-03-12T17:14:30.734Z,11.45
2024-03-12T17:17:07.826Z,12.82
2024-03-12T17:19:38.236Z,12.18
2024-03-12T17:22:06.908Z,13.63
2024-03-12T17:24:35.638Z,14.13
2024-03-12T17:27:11.208Z,13.35
2024-03-12T17:29:38.633Z,13.85
2024-03-12T17:32:06.626Z,16.13
2024-03-12T17:34:34.209Z,16.88
2024-03-12T17:37:04.966Z,16.27
2024-03-12T17:42:02.958Z,14.73
2024-03-12T17:44:30.469Z,18.17
2024-03-12T17:47:00.876Z,14.68
2024-03-12T17:49:40.972Z,14.82
2024-03-12T17:52:11.795Z,13.73
2024-03-12T17:54:39.739Z,14.95
2024-03-12T17:57:12.401Z,16.05
2024-03-12T17:59:40.812Z,15.57
2024-03-12T18:02:13.508Z,15.60
2024-03-12T18:04:42.207Z,16.27
2024-03-12T18:07:26.773Z,15.32
2024-03-12T18:09:58.207Z,13.35
2024-03-12T18:12:25.577Z,14.35
2024-03-12T18:14:52.625Z,15.52
2024-03-12T18:17:21.518Z,14.00
2024-03-12T18:19:48.686Z,13.13
2024-03-12T18:22:17.585Z,13.43
2024-03-12T18:24:47.353Z,13.98
2024-03-12T18:27:14.457Z,17.05
2024-03-12T18:29:44.164Z,14.48
2024-03-12T18:32:15.483Z,14.60
2024-03-12T18:34:43.441Z,18.77
2024-03-12T18:37:10.939Z,18.30
2024-03-12T18:39:38.189Z,15.60
2024-03-12T18:42:06.970Z,14.48
2024-03-12T18:44:34.231Z,15.50
2024-03-12T18:47:02.943Z,17.00
2024-03-12T18:49:30.379Z,16.55
2024-03-12T18:51:57.900Z,19.40
2024-03-12T18:54:25.368Z,14.88
2024-03-12T18:56:52.980Z,15.18
2024-03-12T18:59:20.412Z,15.15
2024-03-12T19:01:52.170Z,16.25
2024-03-12T19:04:31.042Z,18.83
2024-03-12T19:06:59.815Z,15.85
2024-03-12T19:09:30.355Z,14.82
2024-03-12T19:11:57.889Z,15.38
2024-03-12T19:14:25.335Z,14.68
2024-03-12T19:16:54.006Z,16.92
2024-03-12T19:19:25.060Z,14.77
2024-03-12T19:21:52.778Z,13.80
2024-03-12T19:24:19.959Z,16.00
2024-03-12T19:26:47.013Z,13.93
2024-03-12T19:29:14.046Z,16.17
2024-03-12T19:31:41.501Z,15.63
2024-03-12T19:34:16.446Z,14.00
2024-03-12T19:36:45.233Z,11.98
2024-03-12T19:39:13.408Z,13.43
2024-03-12T19:41:45.335Z,13.73
2024-03-12T19:44:13.260Z,11.75
2024-03-12T19:46:43.730Z,12.23
2024-03-12T19:49:11.208Z,13.07
2024-03-12T19:51:38.615Z,12.05
2024-03-12T19:54:09.476Z,10.68
2024-03-12T19:56:37.285Z,12.60
2024-03-12T19:59:05.901Z,14.20
2024-03-12T20:01:33.283Z,12.07
2024-03-12T20:04:00.723Z,12.27
2024-03-12T20:06:27.908Z,12.68
2024-03-12T20:08:56.213Z,11.77
2024-03-12T20:11:23.532Z,12.20
2024-03-12T20:13:51.027Z,11.90
2024-03-12T20:16:18.147Z,10.82
2024-03-12T20:18:45.939Z,9.80
2024-03-12T20:21:13.125Z,9.90
2024-03-12T20:23:42.424Z,11.55
2024-03-12T20:26:10.732Z,10.05
2024-03-12T20:28:37.741Z,11.65
2024-03-12T20:31:07.353Z,12.25
2024-03-12T20:33:34.362Z,12.65
2024-03-12T20:36:05.753Z,13.55
2024-03-12T20:38:32.933Z,12.13
2024-03-12T20:41:00.184Z,12.45
2024-03-12T20:43:28.702Z,9.63
2024-03-12T20:45:56.019Z,11.52
2024-03-12T20:48:23.488Z,10.85
2024-03-12T20:50:50.705Z,9.68
2024-03-12T20:53:18.738Z,12.40
2024-03-12T20:55:45.894Z,10.80
2024-03-12T20:58:14.704Z,10.23
2024-03-12T21:00:42.456Z,10.52
2024-03-12T21:03:12.109Z,11.38
2024-03-12T21:05:40.120Z,13.25
2024-03-12T21:08:08.117Z,10.70
2024-03-12T21:10:35.494Z,10.25
2024-03-12T21:13:02.875Z,13.70
2024-03-12T21:15:30.738Z,11.82
2024-03-12T21:17:57.826Z,12.65
2024-03-12T21:20:33.620Z,11.48
2024-03-12T21:23:04.590Z,8.25
2024-03-12T21:25:33.227Z,11.30
2024-03-12T21:28:00.489Z,10.55
2024-03-12T21:30:28.974Z,11.60
2024-03-12T21:32:59.386Z,9.02
2024-03-12T21:35:26.552Z,9.60
2024-03-12T21:37:53.701Z,9.02
2024-03-12T21:40:21.099Z,9.30
2024-03-12T21:42:48.300Z,8.80
2024-03-12T21:45:18.788Z,8.02
2024-03-12T21:47:47.841Z,8.40
2024-03-12T21:50:16.843Z,7.57
2024-03-12T21:52:44.374Z,8.93
2024-03-12T21:55:12.757Z,7.70
2024-03-12T21:57:41.603Z,7.10
2024-03-12T22:00:18.691Z,6.03
2024-03-12T22:02:45.983Z,9.50
2024-03-12T22:05:15.743Z,5.88
2024-03-12T22:07:45.131Z,6.35
2024-03-12T22:10:15.478Z,6.82
2024-03-12T22:12:42.940Z,6.78
2024-03-12T22:15:12.928Z,6.70
2024-03-12T22:17:43.488Z,8.52
2024-03-12T22:20:15.692Z,6.22
2024-03-12T22:22:45.961Z,7.43
2024-03-12T22:25:15.596Z,7.93
2024-03-12T22:27:44.975Z,7.32
2024-03-12T22:30:12.748Z,9.10
2024-03-12T22:32:43.393Z,9.23
2024-03-12T22:35:11.017Z,6.05
2024-03-12T22:37:38.761Z,8.13
2024-03-12T22:40:06.809Z,6.90
2024-03-12T22:42:34.443Z,6.78
2024-03-12T22:45:05.154Z,6.05
2024-03-12T22:47:33.507Z,6.20
2024-03-12T22:50:00.811Z,4.78
2024-03-12T22:52:29.831Z,4.60
2024-03-12T22:54:57.158Z,4.38
2024-03-12T22:57:24.677Z,4.82
2024-03-12T22:59:53.026Z,3.08
2024-03-12T23:02:20.535Z,3.67
2024-03-12T23:04:51.976Z,2.97
2024-03-12T23:07:19.724Z,2.47
2024-03-12T23:09:48.432Z,3.78
2024-03-12T23:12:16.255Z,2.53
2024-03-12T23:14:43.734Z,3.00
2024-03-12T23:17:11.181Z,2.97
2024-03-12T23:19:41.441Z,2.55
2024-03-12T23:22:10.313Z,2.85
2024-03-12T23:24:38.935Z,2.13
2024-03-12T23:27:06.217Z,1.92
2024-03-12T23:29:33.355Z,2.28
2024-03-12T23:32:01.173Z,2.50
2024-03-12T23:34:28.543Z,3.20
2024-03-12T23:36:55.730Z,3.22
2024-03-12T23:39:24.772Z,3.28
2024-03-12T23:41:53.463Z,2.42
2024-03-12T23:44:20.601Z,3.00
2024-03-12T23:46:47.780Z,1.88
2024-03-12T23:49:14.961Z,3.00
2024-03-12T23:51:42.211Z,3.55
2024-03-12T23:54:09.244Z,2.13
2024-03-12T23:56:39.316Z,3.35
2024-03-12T23:59:06.803Z,3.50
